KMEM/MEM METAR and TAF weather

Enter ICAO airport designator
Station Type Date Time Source
KMEM METAR 2020/09/19 02:54 UTC NOAA

KMEM 190254Z 04011KT 10SM CLR 20/13 A3017 RMK AO2 SLP212 T02000128 53015


Station Type Date Time Source
KMEM Decoded METAR 2020/09/19 02:54 UTC NOAA

MEMPHIS INTERNATIONAL AIRPORT , TN, United States (KMEM) 35-02N 089-59W 86M
Sep 18, 2020 - 10:54 PM EDT / 2020.09.19 0254 UTC
Wind: from the NE (040 degrees) at 13 MPH (11 KT):0
Visibility: 10 mile(s):0
Sky conditions: clear
Temperature: 68.0 F (20.0 C)
Dew Point: 55.0 F (12.8 C)
Relative Humidity: 63%
Pressure (altimeter): 30.17 in. Hg (1021 hPa)
Pressure tendency: 0.04 inches (1.5 hPa) higher than three hours ago
ob: KMEM 190254Z 04011KT 10SM CLR 20/13 A3017 RMK AO2 SLP212 T02000128 53015
cycle: 3

Station Type Date Time Source
KMEM TAF 2020/09/19 03:59 UTC NOAA

TAF
AMD KMEM 190259Z 1903/2006 03012KT P6SM SKC
FM190500 04012KT P6SM FEW250
FM191800 03010G15KT P6SM FEW250
FM192300 04012KT P6SM FEW250

Example: see airport list